^^
Station Historical Data
Daily Summary for January 8, 2018 Units:  English    Metric   Both
« Previous Day
Next Day »
Daily Weekly Monthly Yearly Custom
  High: Low: Average:
Temperature: TemperatureF °F 76.8 °F 80.3 °F
Dew Point: DewpointF °F 36.5 °F 39.3 °F
Humidity: Humidity% 17% 22%
Wind Speed: WindSpeedMPHmph -999.9mph -16.6mph
Wind Gust: WindSpeedGustMPHmph - -
Wind- -
Pressure: PressureIn in 30.10 in -
Precipitation: 0.00 in    
Historical Graphs
 
 
Tabular Data for January 8, 2018
Time Temperature Dew Point Pressure Wind Wind Speed Wind Gust Humidity Rainfall Rate (Hourly) solar Conditions
TemperatureF °F DewpointF °F PressureIn in Calm     Humidity% HourlyPrecipIn in SoftwareType W/m2 Conditions
11:20 81.9 °F 40.5 °F 30.20 in South 2.0 mph 5.0 mph 23% 0.00 in meteobridge W/m2
11:26 82.9 °F 41.4 °F 30.20 in South 4.9 mph 13.0 mph 23% 0.00 in meteobridge W/m2
11:34 82.6 °F 41.0 °F 30.19 in South 4.9 mph 8.0 mph 23% 0.00 in meteobridge W/m2
11:40 81.3 °F 41.0 °F 30.19 in Calm   5.0 mph 24% 0.00 in meteobridge W/m2
11:50 81.5 °F 41.2 °F 30.19 in SE 2.0 mph 4.0 mph 24% 0.00 in meteobridge W/m2
12:00 80.8 °F 41.7 °F 30.19 in ESE 2.9 mph 5.0 mph 25% 0.00 in meteobridge W/m2
12:06 81.7 °F 41.4 °F 30.19 in SSE 10.1 mph 10.1 mph 24% 0.00 in meteobridge W/m2
12:14 80.1 °F 41.0 °F 30.19 in Calm   4.0 mph 25% 0.00 in meteobridge W/m2
12:20 81.1 °F 39.7 °F 30.19 in ESE 6.0 mph 7.0 mph 23% 0.00 in meteobridge W/m2
12:26 80.8 °F 40.6 °F 30.19 in South 8.9 mph 11.0 mph 24% 0.00 in meteobridge W/m2
12:32 82.8 °F 41.2 °F 30.19 in SSE 4.0 mph 10.0 mph 23% 0.00 in meteobridge W/m2
12:38 82.9 °F 41.4 °F 30.19 in SSE 8.1 mph 15.0 mph 23% 0.00 in meteobridge W/m2
12:46 84.6 °F 39.0 °F 30.18 in SSW 2.9 mph 10.0 mph 20% 0.00 in meteobridge W/m2
12:57 85.1 °F 40.8 °F 30.18 in South 4.0 mph 14.0 mph 21% 0.00 in meteobridge W/m2
13:05 83.5 °F 40.6 °F 30.18 in Calm   12.0 mph 22% 0.00 in meteobridge W/m2
13:11 84.4 °F 40.1 °F 30.17 in SSW 4.9 mph 11.0 mph 21% 0.00 in meteobridge W/m2
13:19 81.7 °F 39.2 °F 30.18 in South 8.9 mph 13.0 mph 22% 0.00 in meteobridge W/m2
13:35 84.4 °F 40.1 °F 30.17 in South 4.9 mph 14.0 mph 21% 0.00 in meteobridge W/m2
13:47 83.8 °F 39.7 °F 30.17 in SSE 2.9 mph 10.0 mph 21% 0.00 in meteobridge W/m2
13:53 84.0 °F 39.9 °F 30.17 in Calm   2.0 mph 21% 0.00 in meteobridge W/m2
14:04 83.5 °F 38.1 °F 30.16 in SSE 12.1 mph 13.0 mph 20% 0.00 in meteobridge W/m2
14:14 85.5 °F 38.5 °F 30.16 in SSE 10.1 mph 18.0 mph 19% 0.00 in meteobridge W/m2
14:24 84.7 °F 37.9 °F 30.16 in SSE 4.9 mph 14.0 mph 19% 0.00 in meteobridge W/m2
14:43 86.0 °F 37.6 °F 30.16 in South 10.1 mph 16.0 mph 18% 0.00 in meteobridge W/m2
15:11 86.5 °F 36.5 °F 30.16 in SSE 4.9 mph 10.0 mph 17% 0.00 in meteobridge W/m2
16:39 85.6 °F 39.9 °F 30.12 in SSE 6.0 mph 19.0 mph 20% 0.00 in meteobridge W/m2
16:53 84.7 °F 37.9 °F 30.11 in SSE 2.9 mph 9.0 mph 19% 0.00 in meteobridge W/m2
17:00 84.6 °F 37.8 °F 30.11 in SSE 2.0 mph 5.0 mph 19% 0.00 in meteobridge W/m2
17:47 85.6 °F 38.7 °F 30.11 in East 0.9 mph 5.0 mph 19% 0.00 in meteobridge W/m2
18:07 83.7 °F 39.6 °F 30.10 in South 12.1 mph 16.0 mph 21% 0.00 in meteobridge W/m2
18:27 82.9 °F 39.0 °F 30.11 in SSE 10.1 mph 14.0 mph 21% 0.00 in meteobridge W/m2
18:34 82.6 °F 38.7 °F 30.12 in SSE 11.0 mph 19.0 mph 21% 0.00 in meteobridge W/m2
18:43 81.7 °F 39.2 °F 30.11 in SSE 8.9 mph 18.0 mph 22% 0.00 in meteobridge W/m2
18:50 81.1 °F 39.7 °F 30.11 in SSE 11.0 mph 16.0 mph 23% 0.00 in meteobridge W/m2
18:58 80.2 °F 40.1 °F 30.12 in South 11.0 mph 13.0 mph 24% 0.00 in meteobridge W/m2
19:04 79.9 °F 41.0 °F 30.12 in South 11.0 mph 13.0 mph 25% 0.00 in meteobridge W/m2
19:17 78.6 °F 41.9 °F 30.12 in SSE 11.0 mph 18.0 mph 27% 0.00 in meteobridge W/m2
19:18 78.3 °F 42.4 °F 30.12 in SE 12.1 mph 17.0 mph 28% 0.00 in meteobridge W/m2
19:20 78.1 °F 42.3 °F 30.12 in SE 8.9 mph 11.0 mph 28% 0.00 in meteobridge W/m2
19:27 77.7 °F 43.0 °F 30.12 in South 6.9 mph 13.0 mph 29% 0.00 in meteobridge W/m2
19:33 76.8 °F 42.1 °F 30.12 in SSW 10.1 mph 17.0 mph 29% 0.00 in meteobridge W/m2
19:44 76.8 °F 42.1 °F 30.13 in SSW 10.1 mph -999.0 mph 29% 0.00 in meteobridge W/m2
19:50 76.8 °F 42.1 °F 30.13 in North -999.9 mph -999.0 mph 29% 0.00 in meteobridge W/m2
Regenstein, Windhoek, Namibia
Compliments of Weather Underground - 2 mb